sensor_id;sensor_type;location;lat;lon;timestamp;temperature;humidity
1812;DHT22;904;47.814;11.134;2023-05-10T00:01:22;15.40;99.90
1812;DHT22;904;47.814;11.134;2023-05-10T00:03:50;15.40;99.90
1812;DHT22;904;47.814;11.134;2023-05-10T00:06:17;15.30;99.90
1812;DHT22;904;47.814;11.134;2023-05-10T00:08:45;15.30;99.90
1812;DHT22;904;47.814;11.134;2023-05-10T00:11:12;15.30;99.90
1812;DHT22;904;47.814;11.134;2023-05-10T00:13:41;15.20;99.90
1812;DHT22;904;47.814;11.134;2023-05-10T00:16:10;15.20;99.90
1812;DHT22;904;47.814;11.134;2023-05-10T00:18:41;15.20;99.90
1812;DHT22;904;47.814;11.134;2023-05-10T00:21:08;15.20;99.90
1812;DHT22;904;47.814;11.134;2023-05-10T00:23:40;15.20;99.90
1812;DHT22;904;47.814;11.134;2023-05-10T00:26:11;15.20;99.90
1812;DHT22;904;47.814;11.134;2023-05-10T00:28:41;15.10;99.90
1812;DHT22;904;47.814;11.134;2023-05-10T00:31:09;15.10;99.90
1812;DHT22;904;47.814;11.134;2023-05-10T00:33:37;15.10;99.90
1812;DHT22;904;47.814;11.134;2023-05-10T00:36:05;15.10;99.90
1812;DHT22;904;47.814;11.134;2023-05-10T00:38:36;15.10;99.90
1812;DHT22;904;47.814;11.134;2023-05-10T00:41:04;15.00;99.90
1812;DHT22;904;47.814;11.134;2023-05-10T00:43:32;15.00;99.90
1812;DHT22;904;47.814;11.134;2023-05-10T00:46:01;15.10;99.90
1812;DHT22;904;47.814;11.134;2023-05-10T00:48:29;15.00;99.90
1812;DHT22;904;47.814;11.134;2023-05-10T00:51:01;15.00;99.90
1812;DHT22;904;47.814;11.134;2023-05-10T00:53:30;15.00;99.90
1812;DHT22;904;47.814;11.134;2023-05-10T00:55:58;14.90;99.90
1812;DHT22;904;47.814;11.134;2023-05-10T00:58:27;14.90;99.90
1812;DHT22;904;47.814;11.134;2023-05-10T01:00:57;15.00;99.90
1812;DHT22;904;47.814;11.134;2023-05-10T01:03:27;14.90;99.90
1812;DHT22;904;47.814;11.134;2023-05-10T01:05:54;14.90;99.90
1812;DHT22;904;47.814;11.134;2023-05-10T01:08:24;14.90;99.90
1812;DHT22;904;47.814;11.134;2023-05-10T01:10:54;14.90;99.90
1812;DHT22;904;47.814;11.134;2023-05-10T01:13:30;14.90;99.90
1812;DHT22;904;47.814;11.134;2023-05-10T01:15:59;14.90;99.90
1812;DHT22;904;47.814;11.134;2023-05-10T01:18:29;14.90;99.90
1812;DHT22;904;47.814;11.134;2023-05-10T01:21:07;14.90;99.90
1812;DHT22;904;47.814;11.134;2023-05-10T01:27:06;14.90;99.90
1812;DHT22;904;47.814;11.134;2023-05-10T01:30:00;14.90;99.90
1812;DHT22;904;47.814;11.134;2023-05-10T01:32:36;14.90;99.90
1812;DHT22;904;47.814;11.134;2023-05-10T01:35:10;14.90;99.90
1812;DHT22;904;47.814;11.134;2023-05-10T01:37:47;14.90;99.90
1812;DHT22;904;47.814;11.134;2023-05-10T01:40:23;14.90;99.90
1812;DHT22;904;47.814;11.134;2023-05-10T01:42:54;14.90;99.90
1812;DHT22;904;47.814;11.134;2023-05-10T01:45:29;14.90;99.90
1812;DHT22;904;47.814;11.134;2023-05-10T01:48:04;14.80;99.90
1812;DHT22;904;47.814;11.134;2023-05-10T01:50:36;14.80;99.90
1812;DHT22;904;47.814;11.134;2023-05-10T01:53:06;14.80;99.90
1812;DHT22;904;47.814;11.134;2023-05-10T01:55:41;14.70;99.90
1812;DHT22;904;47.814;11.134;2023-05-10T01:58:13;14.70;99.90
1812;DHT22;904;47.814;11.134;2023-05-10T02:00:42;14.80;99.90
1812;DHT22;904;47.814;11.134;2023-05-10T02:03:12;14.80;99.90
1812;DHT22;904;47.814;11.134;2023-05-10T02:05:41;14.90;99.90
1812;DHT22;904;47.814;11.134;2023-05-10T02:08:12;14.80;99.90
1812;DHT22;904;47.814;11.134;2023-05-10T02:10:45;14.80;99.90
1812;DHT22;904;47.814;11.134;2023-05-10T02:13:14;14.90;99.90
1812;DHT22;904;47.814;11.134;2023-05-10T02:15:48;14.90;99.90
1812;DHT22;904;47.814;11.134;2023-05-10T02:18:18;14.90;99.90
1812;DHT22;904;47.814;11.134;2023-05-10T02:20:46;14.90;99.90
1812;DHT22;904;47.814;11.134;2023-05-10T02:23:20;14.90;99.90
1812;DHT22;904;47.814;11.134;2023-05-10T02:25:48;14.80;99.90
1812;DHT22;904;47.814;11.134;2023-05-10T02:28:17;14.70;99.90
1812;DHT22;904;47.814;11.134;2023-05-10T02:30:46;14.70;99.90
1812;DHT22;904;47.814;11.134;2023-05-10T02:33:14;14.70;99.90
1812;DHT22;904;47.814;11.134;2023-05-10T02:35:44;14.70;99.90
1812;DHT22;904;47.814;11.134;2023-05-10T02:38:13;14.70;99.90
1812;DHT22;904;47.814;11.134;2023-05-10T02:40:42;14.70;99.90
1812;DHT22;904;47.814;11.134;2023-05-10T02:43:13;14.60;99.90
1812;DHT22;904;47.814;11.134;2023-05-10T02:45:43;14.60;99.90
1812;DHT22;904;47.814;11.134;2023-05-10T02:48:14;14.60;99.90
1812;DHT22;904;47.814;11.134;2023-05-10T02:50:44;14.60;99.90
1812;DHT22;904;47.814;11.134;2023-05-10T02:53:17;14.60;99.90
1812;DHT22;904;47.814;11.134;2023-05-10T02:55:58;14.60;99.90
1812;DHT22;904;47.814;11.134;2023-05-10T02:58:34;14.70;99.90
1812;DHT22;904;47.814;11.134;2023-05-10T03:01:05;14.60;99.90
1812;DHT22;904;47.814;11.134;2023-05-10T03:03:33;14.60;99.90
1812;DHT22;904;47.814;11.134;2023-05-10T03:06:03;14.60;99.90
1812;DHT22;904;47.814;11.134;2023-05-10T03:08:31;14.70;99.90
1812;DHT22;904;47.814;11.134;2023-05-10T03:11:22;14.70;99.90
1812;DHT22;904;47.814;11.134;2023-05-10T03:14:06;14.70;99.90
1812;DHT22;904;47.814;11.134;2023-05-10T03:16:46;14.70;99.90
1812;DHT22;904;47.814;11.134;2023-05-10T03:19:26;14.70;99.90
1812;DHT22;904;47.814;11.134;2023-05-10T03:21:59;14.70;99.90
1812;DHT22;904;47.814;11.134;2023-05-10T03:24:31;14.70;99.90
1812;DHT22;904;47.814;11.134;2023-05-10T03:27:03;14.70;99.90
1812;DHT22;904;47.814;11.134;2023-05-10T03:29:34;14.60;99.90
1812;DHT22;904;47.814;11.134;2023-05-10T03:32:03;14.60;99.90
1812;DHT22;904;47.814;11.134;2023-05-10T03:34:31;14.60;99.90
1812;DHT22;904;47.814;11.134;2023-05-10T03:37:05;14.60;99.90
1812;DHT22;904;47.814;11.134;2023-05-10T03:39:35;14.60;99.90
1812;DHT22;904;47.814;11.134;2023-05-10T03:42:03;14.60;99.90
1812;DHT22;904;47.814;11.134;2023-05-10T03:44:31;14.60;99.90
1812;DHT22;904;47.814;11.134;2023-05-10T03:47:08;14.60;99.90
1812;DHT22;904;47.814;11.134;2023-05-10T03:49:35;14.50;99.90
1812;DHT22;904;47.814;11.134;2023-05-10T03:52:05;14.50;99.90
1812;DHT22;904;47.814;11.134;2023-05-10T03:54:35;14.50;99.90
1812;DHT22;904;47.814;11.134;2023-05-10T03:57:05;14.50;99.90
1812;DHT22;904;47.814;11.134;2023-05-10T03:59:33;14.50;99.90
1812;DHT22;904;47.814;11.134;2023-05-10T04:02:06;14.50;99.90
1812;DHT22;904;47.814;11.134;2023-05-10T04:04:33;14.40;99.90
1812;DHT22;904;47.814;11.134;2023-05-10T04:07:00;14.40;99.90
1812;DHT22;904;47.814;11.134;2023-05-10T04:09:30;14.40;99.90
1812;DHT22;904;47.814;11.134;2023-05-10T04:11:59;14.40;99.90
1812;DHT22;904;47.814;11.134;2023-05-10T04:14:38;14.40;99.90
1812;DHT22;904;47.814;11.134;2023-05-10T04:17:08;14.40;99.90
1812;DHT22;904;47.814;11.134;2023-05-10T04:19:36;14.30;99.90
1812;DHT22;904;47.814;11.134;2023-05-10T04:22:04;14.40;99.90
1812;DHT22;904;47.814;11.134;2023-05-10T04:24:33;14.40;99.90
1812;DHT22;904;47.814;11.134;2023-05-10T04:27:06;14.40;99.90
1812;DHT22;904;47.814;11.134;2023-05-10T04:29:35;14.40;99.90
1812;DHT22;904;47.814;11.134;2023-05-10T04:32:08;14.40;99.90
1812;DHT22;904;47.814;11.134;2023-05-10T04:34:36;14.40;99.90
1812;DHT22;904;47.814;11.134;2023-05-10T04:37:04;14.40;99.90
1812;DHT22;904;47.814;11.134;2023-05-10T04:39:33;14.40;99.90
1812;DHT22;904;47.814;11.134;2023-05-10T04:42:01;14.40;99.90
1812;DHT22;904;47.814;11.134;2023-05-10T04:44:31;14.40;99.90
1812;DHT22;904;47.814;11.134;2023-05-10T04:46:59;14.40;99.90
1812;DHT22;904;47.814;11.134;2023-05-10T04:49:28;14.50;99.90
1812;DHT22;904;47.814;11.134;2023-05-10T04:51:56;14.40;99.90
1812;DHT22;904;47.814;11.134;2023-05-10T04:54:24;14.50;99.90
1812;DHT22;904;47.814;11.134;2023-05-10T04:56:53;14.50;99.90
1812;DHT22;904;47.814;11.134;2023-05-10T04:59:22;14.50;99.90
1812;DHT22;904;47.814;11.134;2023-05-10T05:01:51;14.50;99.90
1812;DHT22;904;47.814;11.134;2023-05-10T05:04:23;14.50;99.90
1812;DHT22;904;47.814;11.134;2023-05-10T05:06:51;14.50;99.90
1812;DHT22;904;47.814;11.134;2023-05-10T05:09:19;14.50;99.90
1812;DHT22;904;47.814;11.134;2023-05-10T05:11:46;14.60;99.90
1812;DHT22;904;47.814;11.134;2023-05-10T05:14:16;14.50;99.90
1812;DHT22;904;47.814;11.134;2023-05-10T05:16:44;14.60;99.90
1812;DHT22;904;47.814;11.134;2023-05-10T05:19:11;14.60;99.90
1812;DHT22;904;47.814;11.134;2023-05-10T05:21:43;14.60;99.90
1812;DHT22;904;47.814;11.134;2023-05-10T05:24:11;14.70;99.90
1812;DHT22;904;47.814;11.134;2023-05-10T05:26:39;14.70;99.90
1812;DHT22;904;47.814;11.134;2023-05-10T05:29:07;14.80;99.90
1812;DHT22;904;47.814;11.134;2023-05-10T05:31:36;14.80;99.90
1812;DHT22;904;47.814;11.134;2023-05-10T05:34:03;14.80;99.90
1812;DHT22;904;47.814;11.134;2023-05-10T05:36:32;14.90;99.90
1812;DHT22;904;47.814;11.134;2023-05-10T05:38:59;14.90;99.90
1812;DHT22;904;47.814;11.134;2023-05-10T05:41:35;14.90;99.90
1812;DHT22;904;47.814;11.134;2023-05-10T05:44:04;14.90;99.90
1812;DHT22;904;47.814;11.134;2023-05-10T05:46:36;14.90;99.90
1812;DHT22;904;47.814;11.134;2023-05-10T05:49:06;14.90;99.90
1812;DHT22;904;47.814;11.134;2023-05-10T05:51:34;14.90;99.90
1812;DHT22;904;47.814;11.134;2023-05-10T05:54:01;14.90;99.90
1812;DHT22;904;47.814;11.134;2023-05-10T05:56:30;14.90;99.90
1812;DHT22;904;47.814;11.134;2023-05-10T05:59:12;14.90;99.90
1812;DHT22;904;47.814;11.134;2023-05-10T06:01:41;14.80;99.90
1812;DHT22;904;47.814;11.134;2023-05-10T06:04:09;14.80;99.90
1812;DHT22;904;47.814;11.134;2023-05-10T06:06:39;14.80;99.90
1812;DHT22;904;47.814;11.134;2023-05-10T06:09:06;14.70;99.90
1812;DHT22;904;47.814;11.134;2023-05-10T06:11:34;14.70;99.70
1812;DHT22;904;47.814;11.134;2023-05-10T06:14:02;14.70;99.50
1812;DHT22;904;47.814;11.134;2023-05-10T06:16:30;14.70;99.30
1812;DHT22;904;47.814;11.134;2023-05-10T06:18:58;14.60;99.80
1812;DHT22;904;47.814;11.134;2023-05-10T06:21:25;14.60;99.70
1812;DHT22;904;47.814;11.134;2023-05-10T06:23:52;14.70;99.50
1812;DHT22;904;47.814;11.134;2023-05-10T06:26:19;14.70;99.70
1812;DHT22;904;47.814;11.134;2023-05-10T06:28:52;14.80;99.80
1812;DHT22;904;47.814;11.134;2023-05-10T06:31:23;14.90;99.90
1812;DHT22;904;47.814;11.134;2023-05-10T06:33:50;15.00;99.90
1812;DHT22;904;47.814;11.134;2023-05-10T06:36:19;15.20;99.90
1812;DHT22;904;47.814;11.134;2023-05-10T06:38:47;15.30;99.90
1812;DHT22;904;47.814;11.134;2023-05-10T06:41:14;15.50;99.90
1812;DHT22;904;47.814;11.134;2023-05-10T06:43:41;15.60;99.80
1812;DHT22;904;47.814;11.134;2023-05-10T06:46:09;15.70;99.60
1812;DHT22;904;47.814;11.134;2023-05-10T06:48:36;15.80;99.10
1812;DHT22;904;47.814;11.134;2023-05-10T06:51:03;16.00;99.20
1812;DHT22;904;47.814;11.134;2023-05-10T06:53:32;16.10;98.40
1812;DHT22;904;47.814;11.134;2023-05-10T06:55:59;16.20;97.70
1812;DHT22;904;47.814;11.134;2023-05-10T06:58:26;16.20;97.70
1812;DHT22;904;47.814;11.134;2023-05-10T07:01:00;16.30;97.60
1812;DHT22;904;47.814;11.134;2023-05-10T07:03:28;16.30;96.60
1812;DHT22;904;47.814;11.134;2023-05-10T07:06:00;16.30;97.10
1812;DHT22;904;47.814;11.134;2023-05-10T07:08:28;16.40;97.00
1812;DHT22;904;47.814;11.134;2023-05-10T07:11:01;16.50;96.70
1812;DHT22;904;47.814;11.134;2023-05-10T07:13:29;16.60;97.00
1812;DHT22;904;47.814;11.134;2023-05-10T07:15:56;16.70;97.00
1812;DHT22;904;47.814;11.134;2023-05-10T07:18:23;16.80;96.20
1812;DHT22;904;47.814;11.134;2023-05-10T07:20:51;16.90;95.60
1812;DHT22;904;47.814;11.134;2023-05-10T07:23:18;17.00;95.80
1812;DHT22;904;47.814;11.134;2023-05-10T07:25:45;17.00;94.70
1812;DHT22;904;47.814;11.134;2023-05-10T07:28:14;17.10;95.30
1812;DHT22;904;47.814;11.134;2023-05-10T07:30:42;17.10;95.10
1812;DHT22;904;47.814;11.134;2023-05-10T07:33:09;17.10;94.50
1812;DHT22;904;47.814;11.134;2023-05-10T07:35:37;17.20;93.30
1812;DHT22;904;47.814;11.134;2023-05-10T07:38:04;17.30;92.90
1812;DHT22;904;47.814;11.134;2023-05-10T07:40:31;17.40;92.90
1812;DHT22;904;47.814;11.134;2023-05-10T07:43:03;17.50;93.50
1812;DHT22;904;47.814;11.134;2023-05-10T07:45:31;17.70;93.10
1812;DHT22;904;47.814;11.134;2023-05-10T07:47:58;17.80;91.60
1812;DHT22;904;47.814;11.134;2023-05-10T07:50:25;17.80;91.90
1812;DHT22;904;47.814;11.134;2023-05-10T07:52:52;17.70;90.20
1812;DHT22;904;47.814;11.134;2023-05-10T07:55:20;17.60;91.00
1812;DHT22;904;47.814;11.134;2023-05-10T07:57:47;17.50;91.10
1812;DHT22;904;47.814;11.134;2023-05-10T08:00:17;17.40;90.90
1812;DHT22;904;47.814;11.134;2023-05-10T08:02:46;17.30;91.80
1812;DHT22;904;47.814;11.134;2023-05-10T08:05:13;17.30;92.70
1812;DHT22;904;47.814;11.134;2023-05-10T08:07:41;17.20;92.00
1812;DHT22;904;47.814;11.134;2023-05-10T08:10:11;17.10;92.30
1812;DHT22;904;47.814;11.134;2023-05-10T08:12:38;16.90;91.90
1812;DHT22;904;47.814;11.134;2023-05-10T08:15:06;16.80;91.90
1812;DHT22;904;47.814;11.134;2023-05-10T08:17:34;16.60;92.50
1812;DHT22;904;47.814;11.134;2023-05-10T08:20:04;16.50;92.60
1812;DHT22;904;47.814;11.134;2023-05-10T08:22:31;16.40;92.60
1812;DHT22;904;47.814;11.134;2023-05-10T08:24:58;16.30;93.00
1812;DHT22;904;47.814;11.134;2023-05-10T08:27:25;16.20;93.30
1812;DHT22;904;47.814;11.134;2023-05-10T08:29:52;16.10;93.50
1812;DHT22;904;47.814;11.134;2023-05-10T08:32:20;15.90;93.50
1812;DHT22;904;47.814;11.134;2023-05-10T08:34:47;15.90;94.40
1812;DHT22;904;47.814;11.134;2023-05-10T08:37:20;15.90;94.80
1812;DHT22;904;47.814;11.134;2023-05-10T08:39:47;16.00;95.60
1812;DHT22;904;47.814;11.134;2023-05-10T08:42:19;16.10;95.20
1812;DHT22;904;47.814;11.134;2023-05-10T08:44:48;16.30;95.70
1812;DHT22;904;47.814;11.134;2023-05-10T08:47:16;16.50;94.30
1812;DHT22;904;47.814;11.134;2023-05-10T08:49:49;16.80;93.10
1812;DHT22;904;47.814;11.134;2023-05-10T08:52:21;17.20;93.20
1812;DHT22;904;47.814;11.134;2023-05-10T08:54:52;17.50;91.70
1812;DHT22;904;47.814;11.134;2023-05-10T08:57:19;17.80;91.50
1812;DHT22;904;47.814;11.134;2023-05-10T08:59:46;18.00;91.80
1812;DHT22;904;47.814;11.134;2023-05-10T09:02:14;18.20;91.20
1812;DHT22;904;47.814;11.134;2023-05-10T09:04:41;18.30;90.40
1812;DHT22;904;47.814;11.134;2023-05-10T09:07:08;18.50;90.90
1812;DHT22;904;47.814;11.134;2023-05-10T09:09:37;18.80;89.80
1812;DHT22;904;47.814;11.134;2023-05-10T09:12:06;19.10;88.60
1812;DHT22;904;47.814;11.134;2023-05-10T09:14:37;19.30;82.60
1812;DHT22;904;47.814;11.134;2023-05-10T09:17:04;19.30;82.70
1812;DHT22;904;47.814;11.134;2023-05-10T09:19:34;19.50;83.70
1812;DHT22;904;47.814;11.134;2023-05-10T09:22:01;19.70;85.40
1812;DHT22;904;47.814;11.134;2023-05-10T09:24:29;19.80;82.40
1812;DHT22;904;47.814;11.134;2023-05-10T09:26:57;19.80;81.70
1812;DHT22;904;47.814;11.134;2023-05-10T09:29:25;19.70;80.30
1812;DHT22;904;47.814;11.134;2023-05-10T09:31:53;19.50;80.80
1812;DHT22;904;47.814;11.134;2023-05-10T09:34:28;19.40;82.60
1812;DHT22;904;47.814;11.134;2023-05-10T09:36:57;19.30;84.30
1812;DHT22;904;47.814;11.134;2023-05-10T09:39:30;19.10;81.90
1812;DHT22;904;47.814;11.134;2023-05-10T09:41:58;18.80;81.50
1812;DHT22;904;47.814;11.134;2023-05-10T09:44:27;18.60;83.70
1812;DHT22;904;47.814;11.134;2023-05-10T09:46:54;18.40;87.20
1812;DHT22;904;47.814;11.134;2023-05-10T09:49:22;18.30;89.80
1812;DHT22;904;47.814;11.134;2023-05-10T09:52:00;18.10;90.00
1812;DHT22;904;47.814;11.134;2023-05-10T09:54:27;18.10;87.30
1812;DHT22;904;47.814;11.134;2023-05-10T09:56:54;17.90;86.40
1812;DHT22;904;47.814;11.134;2023-05-10T09:59:21;17.60;87.20
1812;DHT22;904;47.814;11.134;2023-05-10T10:01:53;17.40;88.00
1812;DHT22;904;47.814;11.134;2023-05-10T10:04:22;17.30;90.00
1812;DHT22;904;47.814;11.134;2023-05-10T10:06:58;17.20;90.50
1812;DHT22;904;47.814;11.134;2023-05-10T10:09:27;17.10;90.90
1812;DHT22;904;47.814;11.134;2023-05-10T10:11:54;16.90;90.40
1812;DHT22;904;47.814;11.134;2023-05-10T10:14:22;16.90;90.80
1812;DHT22;904;47.814;11.134;2023-05-10T10:16:49;16.80;90.80
1812;DHT22;904;47.814;11.134;2023-05-10T10:19:18;16.80;91.40
1812;DHT22;904;47.814;11.134;2023-05-10T10:21:46;16.90;91.60
1812;DHT22;904;47.814;11.134;2023-05-10T10:24:13;16.90;91.40
1812;DHT22;904;47.814;11.134;2023-05-10T10:26:41;16.90;91.70
1812;DHT22;904;47.814;11.134;2023-05-10T10:29:16;17.00;91.60
1812;DHT22;904;47.814;11.134;2023-05-10T10:31:48;17.00;91.80
1812;DHT22;904;47.814;11.134;2023-05-10T10:34:31;16.90;90.60
1812;DHT22;904;47.814;11.134;2023-05-10T10:37:09;16.80;90.00
1812;DHT22;904;47.814;11.134;2023-05-10T10:39:43;16.80;89.20
1812;DHT22;904;47.814;11.134;2023-05-10T10:42:10;16.60;89.80
1812;DHT22;904;47.814;11.134;2023-05-10T10:44:38;16.50;90.10
1812;DHT22;904;47.814;11.134;2023-05-10T10:47:21;16.40;90.80
1812;DHT22;904;47.814;11.134;2023-05-10T10:50:02;16.30;90.80
1812;DHT22;904;47.814;11.134;2023-05-10T10:52:36;16.10;91.60
1812;DHT22;904;47.814;11.134;2023-05-10T10:55:05;16.00;91.80
1812;DHT22;904;47.814;11.134;2023-05-10T10:57:43;16.00;92.20
1812;DHT22;904;47.814;11.134;2023-05-10T11:00:27;16.00;91.80
1812;DHT22;904;47.814;11.134;2023-05-10T11:02:57;15.90;92.50
1812;DHT22;904;47.814;11.134;2023-05-10T11:05:37;16.00;93.10
1812;DHT22;904;47.814;11.134;2023-05-10T11:08:14;16.00;93.40
1812;DHT22;904;47.814;11.134;2023-05-10T11:10:52;16.00;93.40
1812;DHT22;904;47.814;11.134;2023-05-10T11:13:30;16.00;93.80
1812;DHT22;904;47.814;11.134;2023-05-10T11:15:58;16.10;93.50
1812;DHT22;904;47.814;11.134;2023-05-10T11:18:29;16.10;93.60
1812;DHT22;904;47.814;11.134;2023-05-10T11:20:59;16.00;92.60
1812;DHT22;904;47.814;11.134;2023-05-10T11:23:31;16.00;92.80
1812;DHT22;904;47.814;11.134;2023-05-10T11:26:00;15.80;93.80
1812;DHT22;904;47.814;11.134;2023-05-10T11:28:27;15.70;94.50
1812;DHT22;904;47.814;11.134;2023-05-10T11:30:59;15.80;94.90
1812;DHT22;904;47.814;11.134;2023-05-10T11:33:27;15.70;94.50
1812;DHT22;904;47.814;11.134;2023-05-10T11:35:54;15.70;94.70
1812;DHT22;904;47.814;11.134;2023-05-10T11:38:22;15.80;94.90
1812;DHT22;904;47.814;11.134;2023-05-10T11:40:51;15.90;95.40
1812;DHT22;904;47.814;11.134;2023-05-10T11:43:23;15.90;95.60
1812;DHT22;904;47.814;11.134;2023-05-10T11:45:56;16.00;94.70
1812;DHT22;904;47.814;11.134;2023-05-10T11:48:23;16.00;93.80
1812;DHT22;904;47.814;11.134;2023-05-10T11:50:50;16.00;92.70
1812;DHT22;904;47.814;11.134;2023-05-10T11:53:19;16.00;92.50
1812;DHT22;904;47.814;11.134;2023-05-10T11:55:51;16.10;92.40
1812;DHT22;904;47.814;11.134;2023-05-10T11:58:18;16.10;92.60
1812;DHT22;904;47.814;11.134;2023-05-10T12:00:47;16.10;92.90
1812;DHT22;904;47.814;11.134;2023-05-10T12:03:14;16.10;92.90
1812;DHT22;904;47.814;11.134;2023-05-10T12:05:43;16.20;93.30
1812;DHT22;904;47.814;11.134;2023-05-10T12:08:14;16.20;92.60
1812;DHT22;904;47.814;11.134;2023-05-10T12:10:41;16.20;92.40
1812;DHT22;904;47.814;11.134;2023-05-10T12:13:20;16.20;92.20
1812;DHT22;904;47.814;11.134;2023-05-10T12:15:48;16.10;92.40
1812;DHT22;904;47.814;11.134;2023-05-10T12:18:23;16.20;92.20
1812;DHT22;904;47.814;11.134;2023-05-10T12:20:52;16.10;91.10
1812;DHT22;904;47.814;11.134;2023-05-10T12:23:24;16.10;90.70
1812;DHT22;904;47.814;11.134;2023-05-10T12:26:02;16.00;91.20
1812;DHT22;904;47.814;11.134;2023-05-10T12:28:34;16.00;91.10
1812;DHT22;904;47.814;11.134;2023-05-10T12:31:02;15.90;91.50
1812;DHT22;904;47.814;11.134;2023-05-10T12:33:36;15.90;91.50
1812;DHT22;904;47.814;11.134;2023-05-10T12:36:11;15.90;91.50
1812;DHT22;904;47.814;11.134;2023-05-10T12:38:39;16.00;91.00
1812;DHT22;904;47.814;11.134;2023-05-10T12:41:11;16.00;91.50
1812;DHT22;904;47.814;11.134;2023-05-10T12:43:40;16.00;91.70
1812;DHT22;904;47.814;11.134;2023-05-10T12:46:13;16.00;91.70
1812;DHT22;904;47.814;11.134;2023-05-10T12:48:42;15.90;92.20
1812;DHT22;904;47.814;11.134;2023-05-10T12:51:10;16.00;93.10
1812;DHT22;904;47.814;11.134;2023-05-10T12:53:42;16.10;93.60
1812;DHT22;904;47.814;11.134;2023-05-10T12:56:13;16.20;93.20
1812;DHT22;904;47.814;11.134;2023-05-10T12:58:41;16.40;93.50
1812;DHT22;904;47.814;11.134;2023-05-10T13:01:13;16.50;93.30
1812;DHT22;904;47.814;11.134;2023-05-10T13:03:42;16.50;93.30
1812;DHT22;904;47.814;11.134;2023-05-10T13:06:09;16.60;92.40
1812;DHT22;904;47.814;11.134;2023-05-10T13:08:38;16.50;92.10
1812;DHT22;904;47.814;11.134;2023-05-10T13:11:08;16.50;92.80
1812;DHT22;904;47.814;11.134;2023-05-10T13:13:37;16.40;92.20
1812;DHT22;904;47.814;11.134;2023-05-10T13:16:06;16.40;91.60
1812;DHT22;904;47.814;11.134;2023-05-10T13:18:33;16.30;91.00
1812;DHT22;904;47.814;11.134;2023-05-10T13:21:13;16.30;90.50
1812;DHT22;904;47.814;11.134;2023-05-10T13:23:43;16.20;90.70
1812;DHT22;904;47.814;11.134;2023-05-10T13:26:10;16.10;91.10
1812;DHT22;904;47.814;11.134;2023-05-10T13:28:43;16.20;91.40
1812;DHT22;904;47.814;11.134;2023-05-10T13:31:12;16.20;91.30
1812;DHT22;904;47.814;11.134;2023-05-10T13:33:40;16.20;91.70
1812;DHT22;904;47.814;11.134;2023-05-10T13:36:09;16.10;91.00
1812;DHT22;904;47.814;11.134;2023-05-10T13:38:41;16.00;90.60
1812;DHT22;904;47.814;11.134;2023-05-10T13:41:10;15.90;90.30
1812;DHT22;904;47.814;11.134;2023-05-10T13:43:37;15.80;89.90
1812;DHT22;904;47.814;11.134;2023-05-10T13:46:05;15.70;90.00
1812;DHT22;904;47.814;11.134;2023-05-10T13:48:34;15.70;89.80
1812;DHT22;904;47.814;11.134;2023-05-10T13:51:02;15.60;90.20
1812;DHT22;904;47.814;11.134;2023-05-10T13:53:29;15.50;91.10
1812;DHT22;904;47.814;11.134;2023-05-10T13:55:56;15.50;91.40
1812;DHT22;904;47.814;11.134;2023-05-10T13:58:28;15.50;91.70
1812;DHT22;904;47.814;11.134;2023-05-10T14:00:55;15.50;91.50
1812;DHT22;904;47.814;11.134;2023-05-10T14:03:22;15.50;91.50
1812;DHT22;904;47.814;11.134;2023-05-10T14:05:51;15.50;91.30
1812;DHT22;904;47.814;11.134;2023-05-10T14:08:20;15.50;91.20
1812;DHT22;904;47.814;11.134;2023-05-10T14:10:48;15.50;92.10
1812;DHT22;904;47.814;11.134;2023-05-10T14:13:17;15.50;91.70
1812;DHT22;904;47.814;11.134;2023-05-10T14:15:44;15.50;92.30
1812;DHT22;904;47.814;11.134;2023-05-10T14:18:13;15.50;92.90
1812;DHT22;904;47.814;11.134;2023-05-10T14:20:43;15.50;91.80
1812;DHT22;904;47.814;11.134;2023-05-10T14:23:13;15.60;91.90
1812;DHT22;904;47.814;11.134;2023-05-10T14:25:40;15.60;92.50
1812;DHT22;904;47.814;11.134;2023-05-10T14:28:08;15.50;92.50
1812;DHT22;904;47.814;11.134;2023-05-10T14:30:41;15.50;92.80
1812;DHT22;904;47.814;11.134;2023-05-10T14:33:10;15.50;92.30
1812;DHT22;904;47.814;11.134;2023-05-10T14:35:42;15.40;92.70
1812;DHT22;904;47.814;11.134;2023-05-10T14:38:12;15.40;92.90
1812;DHT22;904;47.814;11.134;2023-05-10T14:40:39;15.40;93.30
1812;DHT22;904;47.814;11.134;2023-05-10T14:43:07;15.30;93.10
1812;DHT22;904;47.814;11.134;2023-05-10T14:45:40;15.30;92.80
1812;DHT22;904;47.814;11.134;2023-05-10T14:48:07;15.30;93.50
1812;DHT22;904;47.814;11.134;2023-05-10T14:50:37;15.30;93.20
1812;DHT22;904;47.814;11.134;2023-05-10T14:53:07;15.20;93.00
1812;DHT22;904;47.814;11.134;2023-05-10T14:55:36;15.20;93.20
1812;DHT22;904;47.814;11.134;2023-05-10T14:58:04;15.20;93.00
1812;DHT22;904;47.814;11.134;2023-05-10T15:00:31;15.20;92.30
1812;DHT22;904;47.814;11.134;2023-05-10T15:02:59;15.10;92.90
1812;DHT22;904;47.814;11.134;2023-05-10T15:05:26;15.10;92.90
1812;DHT22;904;47.814;11.134;2023-05-10T15:07:57;15.10;93.20
1812;DHT22;904;47.814;11.134;2023-05-10T15:10:27;15.10;93.30
1812;DHT22;904;47.814;11.134;2023-05-10T15:12:55;15.10;92.90
1812;DHT22;904;47.814;11.134;2023-05-10T15:15:24;15.00;93.20
1812;DHT22;904;47.814;11.134;2023-05-10T15:17:51;15.00;93.00
1812;DHT22;904;47.814;11.134;2023-05-10T15:20:26;14.90;91.70
1812;DHT22;904;47.814;11.134;2023-05-10T15:22:54;14.70;92.00
1812;DHT22;904;47.814;11.134;2023-05-10T15:25:22;14.70;92.90
1812;DHT22;904;47.814;11.134;2023-05-10T15:27:56;14.70;93.10
1812;DHT22;904;47.814;11.134;2023-05-10T15:30:23;14.70;93.10
1812;DHT22;904;47.814;11.134;2023-05-10T15:32:51;14.60;93.40
1812;DHT22;904;47.814;11.134;2023-05-10T15:35:19;14.70;94.10
1812;DHT22;904;47.814;11.134;2023-05-10T15:37:47;14.60;94.40
1812;DHT22;904;47.814;11.134;2023-05-10T15:40:16;14.60;94.60
1812;DHT22;904;47.814;11.134;2023-05-10T15:42:44;14.60;94.50
1812;DHT22;904;47.814;11.134;2023-05-10T15:45:13;14.50;93.60
1812;DHT22;904;47.814;11.134;2023-05-10T15:47:40;14.40;93.90
1812;DHT22;904;47.814;11.134;2023-05-10T15:50:09;14.30;93.80
1812;DHT22;904;47.814;11.134;2023-05-10T15:52:36;14.30;93.40
1812;DHT22;904;47.814;11.134;2023-05-10T15:55:07;14.30;93.20
1812;DHT22;904;47.814;11.134;2023-05-10T15:57:37;14.30;93.40
1812;DHT22;904;47.814;11.134;2023-05-10T16:00:07;14.20;93.80
1812;DHT22;904;47.814;11.134;2023-05-10T16:02:36;14.30;94.40
1812;DHT22;904;47.814;11.134;2023-05-10T16:05:04;14.20;94.40
1812;DHT22;904;47.814;11.134;2023-05-10T16:07:31;14.30;94.80
1812;DHT22;904;47.814;11.134;2023-05-10T16:10:00;14.30;94.60
1812;DHT22;904;47.814;11.134;2023-05-10T16:12:29;14.30;94.60
1812;DHT22;904;47.814;11.134;2023-05-10T16:14:56;14.20;94.40
1812;DHT22;904;47.814;11.134;2023-05-10T16:17:27;14.20;94.20
1812;DHT22;904;47.814;11.134;2023-05-10T16:19:55;14.10;94.40
1812;DHT22;904;47.814;11.134;2023-05-10T16:22:23;14.10;94.80